createdAt,value
2018-11-23T00:00:27.661Z,45.25
2018-11-23T00:02:56.574Z,43.05
2018-11-23T00:05:24.593Z,44.98
2018-11-23T00:07:53.188Z,48.73
2018-11-23T00:10:22.408Z,43.75
2018-11-23T00:12:50.419Z,46.75
2018-11-23T00:15:19.769Z,44.18
2018-11-23T00:17:47.734Z,46.00
2018-11-23T00:20:16.966Z,41.83
2018-11-23T00:22:45.030Z,40.90
2018-11-23T00:25:15.174Z,40.65
2018-11-23T00:27:43.211Z,41.63
2018-11-23T00:30:13.084Z,45.67
2018-11-23T00:32:41.367Z,46.33
2018-11-23T00:35:10.788Z,46.10
2018-11-23T00:37:38.844Z,49.30
2018-11-23T00:40:11.825Z,46.23
2018-11-23T00:42:40.197Z,47.83
2018-11-23T00:45:09.305Z,45.40
2018-11-23T00:47:37.289Z,45.35
2018-11-23T00:50:06.567Z,46.68
2018-11-23T00:52:34.530Z,43.20
2018-11-23T00:55:02.581Z,40.98
2018-11-23T00:57:30.592Z,44.13
2018-11-23T00:59:58.632Z,44.00
2018-11-23T01:02:26.621Z,42.62
2018-11-23T01:04:54.668Z,42.80
2018-11-23T01:07:22.650Z,43.38
2018-11-23T01:09:50.602Z,42.83
2018-11-23T01:12:18.592Z,41.60
2018-11-23T01:14:46.582Z,43.87
2018-11-23T01:17:14.548Z,40.43
2018-11-23T01:19:42.547Z,39.55
2018-11-23T01:22:10.552Z,41.10
2018-11-23T01:24:38.526Z,42.65
2018-11-23T01:27:06.547Z,40.70
2018-11-23T01:29:34.544Z,40.30
2018-11-23T01:32:02.575Z,42.45
2018-11-23T01:34:30.549Z,41.37
2018-11-23T01:36:58.506Z,40.00
2018-11-23T01:39:26.495Z,43.95
2018-11-23T01:41:54.489Z,42.00
2018-11-23T01:44:22.456Z,42.13
2018-11-23T01:46:50.446Z,41.98
2018-11-23T01:49:18.662Z,39.30
2018-11-23T01:51:46.637Z,42.30
2018-11-23T01:54:14.621Z,42.83
2018-11-23T01:56:42.667Z,41.55
2018-11-23T01:59:10.717Z,42.67
2018-11-23T02:01:38.741Z,44.85
2018-11-23T02:04:06.716Z,46.10
2018-11-23T02:06:34.726Z,47.43
2018-11-23T02:09:03.096Z,45.85
2018-11-23T02:11:31.152Z,44.23
2018-11-23T02:13:59.150Z,43.00
2018-11-23T02:16:27.093Z,47.35
2018-11-23T02:18:55.166Z,43.35
2018-11-23T02:21:23.220Z,44.65
2018-11-23T02:23:51.185Z,45.50
2018-11-23T02:26:19.304Z,45.15
2018-11-23T02:28:47.421Z,42.33
2018-11-23T02:31:15.498Z,43.38
2018-11-23T02:33:43.460Z,45.90
2018-11-23T02:36:11.471Z,44.80
2018-11-23T02:38:39.520Z,45.15
2018-11-23T02:41:07.513Z,44.75
2018-11-23T02:43:35.605Z,43.65
2018-11-23T02:46:03.628Z,41.18
2018-11-23T02:48:31.611Z,42.23
2018-11-23T02:51:00.544Z,41.08
2018-11-23T02:53:28.604Z,43.30
2018-11-23T02:55:56.583Z,44.70
2018-11-23T02:58:24.601Z,42.27
2018-11-23T03:00:52.729Z,39.95
2018-11-23T03:03:20.718Z,42.40
2018-11-23T03:05:48.788Z,40.90
2018-11-23T03:08:16.848Z,43.78
2018-11-23T03:10:44.860Z,44.90
2018-11-23T03:13:12.825Z,42.70
2018-11-23T03:15:40.912Z,44.95
2018-11-23T03:18:08.903Z,42.83
2018-11-23T03:20:36.938Z,42.73
2018-11-23T03:23:05.061Z,43.08
2018-11-23T03:25:33.071Z,45.65
2018-11-23T03:28:01.027Z,43.15
2018-11-23T03:30:29.051Z,44.93
2018-11-23T03:32:57.042Z,40.03
2018-11-23T03:35:25.023Z,41.35
2018-11-23T03:37:53.019Z,41.92
2018-11-23T03:40:21.177Z,40.40
2018-11-23T03:42:49.256Z,37.67
2018-11-23T03:45:17.468Z,41.95
2018-11-23T03:47:45.780Z,38.20
2018-11-23T03:50:14.737Z,41.45
2018-11-23T03:52:43.126Z,40.05
2018-11-23T03:55:11.087Z,37.45
2018-11-23T03:57:39.170Z,37.25
2018-11-23T04:00:17.130Z,39.35
2018-11-23T04:02:39.292Z,36.77
2018-11-23T04:05:07.502Z,38.75
2018-11-23T04:07:35.540Z,39.03
2018-11-23T04:10:08.157Z,39.70
2018-11-23T04:12:45.438Z,39.30
2018-11-23T04:15:21.074Z,38.70
2018-11-23T04:17:55.128Z,38.25
2018-11-23T04:20:23.203Z,34.50
2018-11-23T04:22:51.278Z,38.70
2018-11-23T04:25:19.198Z,38.10
2018-11-23T04:27:47.305Z,35.92
2018-11-23T04:30:16.557Z,36.33
2018-11-23T04:32:45.556Z,37.40
2018-11-23T04:35:14.745Z,39.60
2018-11-23T04:37:43.593Z,33.33
2018-11-23T04:40:12.598Z,36.35
2018-11-23T04:42:41.017Z,38.35
2018-11-23T04:45:09.547Z,38.05
2018-11-23T04:47:38.362Z,35.10
2018-11-23T04:50:07.020Z,36.48
2018-11-23T04:52:34.993Z,36.58
2018-11-23T04:55:03.249Z,34.78
2018-11-23T04:57:31.286Z,36.58
2018-11-23T05:00:01.395Z,35.03
2018-11-23T05:02:29.449Z,34.75
2018-11-23T05:04:57.637Z,38.38
2018-11-23T05:07:25.614Z,32.78
2018-11-23T05:09:53.595Z,32.67
2018-11-23T05:12:21.860Z,35.60
2018-11-23T05:14:50.119Z,32.15
2018-11-23T05:17:18.076Z,33.95
2018-11-23T05:19:46.669Z,32.58
2018-11-23T05:22:14.863Z,33.85
2018-11-23T05:24:43.177Z,32.50
2018-11-23T05:27:11.137Z,33.00
2018-11-23T05:29:39.077Z,32.28
2018-11-23T05:32:07.076Z,31.70
2018-11-23T05:34:35.125Z,34.10
2018-11-23T05:37:03.191Z,33.63
2018-11-23T05:39:31.180Z,30.90
2018-11-23T05:41:59.219Z,32.10
2018-11-23T05:44:27.177Z,31.42
2018-11-23T05:46:55.253Z,32.55
2018-11-23T05:49:23.193Z,31.52
2018-11-23T05:51:51.132Z,31.25
2018-11-23T05:54:19.091Z,27.00
2018-11-23T05:56:47.167Z,30.10
2018-11-23T05:59:15.135Z,30.90
2018-11-23T06:01:43.144Z,30.80
2018-11-23T06:04:11.136Z,31.40
2018-11-23T06:06:42.421Z,32.48
2018-11-23T06:09:07.324Z,29.00
2018-11-23T06:11:35.595Z,32.40
2018-11-23T06:14:03.651Z,31.87
2018-11-23T06:16:31.844Z,29.95
2018-11-23T06:19:00.893Z,33.10
2018-11-23T06:21:29.003Z,34.13
2018-11-23T06:23:56.978Z,33.53
2018-11-23T06:26:25.704Z,34.50
2018-11-23T06:28:53.693Z,34.65
2018-11-23T06:31:21.761Z,34.60
2018-11-23T06:33:50.253Z,35.45
2018-11-23T06:36:18.206Z,33.70
2018-11-23T06:38:46.175Z,34.55
2018-11-23T06:41:14.120Z,33.38
2018-11-23T06:43:42.067Z,36.90
2018-11-23T06:46:11.338Z,35.88
2018-11-23T06:48:39.344Z,34.88
2018-11-23T06:51:07.715Z,37.40
2018-11-23T06:53:35.765Z,34.25
2018-11-23T06:56:04.715Z,38.17
2018-11-23T06:58:32.761Z,38.85
2018-11-23T07:01:00.717Z,38.15
2018-11-23T07:03:28.812Z,37.73
2018-11-23T07:05:57.377Z,37.85
2018-11-23T07:08:25.638Z,35.40
2018-11-23T07:10:54.037Z,37.53
2018-11-23T07:13:21.999Z,37.75
2018-11-23T07:15:49.920Z,35.10
2018-11-23T07:18:17.902Z,40.78
2018-11-23T07:20:45.918Z,37.50
2018-11-23T07:23:13.837Z,34.40
2018-11-23T07:25:41.835Z,31.85
2018-11-23T07:28:15.438Z,34.35
2018-11-23T07:30:37.853Z,34.50
2018-11-23T07:33:06.951Z,33.85
2018-11-23T07:35:34.957Z,32.93
2018-11-23T07:38:02.968Z,34.13
2018-11-23T07:40:41.186Z,31.42
2018-11-23T07:43:09.111Z,33.75
2018-11-23T07:45:37.052Z,31.85
2018-11-23T07:48:05.405Z,32.73
2018-11-23T07:50:33.369Z,30.12
2018-11-23T07:53:01.311Z,30.80
2018-11-23T07:55:29.295Z,29.20
2018-11-23T07:57:57.277Z,28.65
2018-11-23T08:00:25.890Z,30.85
2018-11-23T08:02:53.871Z,31.33
2018-11-23T08:05:22.245Z,31.62
2018-11-23T08:07:50.354Z,28.83
2018-11-23T08:10:17.701Z,31.20
2018-11-23T08:12:47.072Z,29.60
2018-11-23T08:15:22.058Z,25.95
2018-11-23T08:17:50.042Z,30.02
2018-11-23T08:20:20.014Z,27.65
2018-11-23T08:22:48.052Z,28.50
2018-11-23T08:25:17.175Z,27.55
2018-11-23T08:27:46.289Z,29.65
2018-11-23T08:30:20.220Z,26.93
2018-11-23T08:32:48.176Z,29.00
2018-11-23T08:35:16.258Z,27.50
2018-11-23T08:37:44.486Z,26.25
2018-11-23T08:40:14.340Z,25.90
2018-11-23T08:42:42.712Z,31.23
2018-11-23T08:45:11.638Z,32.30
2018-11-23T08:47:39.786Z,31.68
2018-11-23T08:50:10.210Z,27.93
2018-11-23T08:52:38.192Z,27.30
2018-11-23T08:55:06.794Z,27.58
2018-11-23T08:57:34.789Z,29.45
2018-11-23T09:00:03.205Z,27.35
2018-11-23T09:02:31.214Z,29.15
2018-11-23T09:04:59.171Z,29.63
2018-11-23T09:07:27.163Z,30.68
2018-11-23T09:09:55.196Z,29.80
2018-11-23T09:12:23.169Z,29.48
2018-11-23T09:14:51.182Z,29.45
2018-11-23T09:17:19.187Z,29.23
2018-11-23T09:19:47.187Z,30.43
2018-11-23T09:22:15.193Z,31.73
2018-11-23T09:24:43.158Z,29.05
2018-11-23T09:27:11.186Z,30.85
2018-11-23T09:29:39.175Z,29.72
2018-11-23T09:32:07.119Z,29.57
2018-11-23T09:34:35.121Z,28.38
2018-11-23T09:37:03.260Z,25.75
2018-11-23T09:39:31.266Z,29.72
2018-11-23T09:41:59.349Z,27.35
2018-11-23T09:44:27.657Z,26.62
2018-11-23T09:46:55.713Z,25.15
2018-11-23T09:49:23.759Z,25.90
2018-11-23T09:51:51.748Z,24.87
2018-11-23T09:54:19.764Z,25.27
2018-11-23T09:56:47.834Z,25.08
2018-11-23T09:59:15.835Z,26.05
2018-11-23T10:01:43.892Z,25.10
2018-11-23T10:04:12.007Z,26.05
2018-11-23T10:06:40.137Z,26.95
2018-11-23T10:09:08.252Z,28.05
2018-11-23T10:11:37.242Z,26.05
2018-11-23T10:14:05.647Z,25.90
2018-11-23T10:16:33.635Z,25.37
2018-11-23T10:19:01.861Z,26.20
2018-11-23T10:21:29.901Z,26.42
2018-11-23T10:23:57.868Z,26.75
2018-11-23T10:26:25.872Z,26.07
2018-11-23T10:28:53.871Z,24.87
2018-11-23T10:31:21.846Z,23.25
2018-11-23T10:33:50.063Z,25.32
2018-11-23T10:36:18.012Z,23.47
2018-11-23T10:38:46.019Z,22.32
2018-11-23T10:41:13.973Z,27.00
2018-11-23T10:43:41.995Z,25.95
2018-11-23T10:46:09.983Z,28.12
2018-11-23T10:48:37.958Z,26.17
2018-11-23T10:51:05.937Z,27.10
2018-11-23T10:53:33.934Z,27.93
2018-11-23T10:56:01.920Z,24.35
2018-11-23T10:58:29.975Z,21.65
2018-11-23T11:01:03.506Z,23.67
2018-11-23T11:03:32.409Z,24.43
2018-11-23T11:06:05.873Z,23.42
2018-11-23T11:08:33.980Z,24.57
2018-11-23T11:11:02.124Z,24.02
2018-11-23T11:13:30.417Z,22.75
2018-11-23T11:15:59.959Z,21.75
2018-11-23T11:18:27.963Z,22.77
2018-11-23T11:20:56.194Z,22.87
2018-11-23T11:23:24.419Z,21.87
2018-11-23T11:25:52.398Z,23.77
2018-11-23T11:28:20.900Z,22.67
2018-11-23T11:30:48.926Z,21.82
2018-11-23T11:33:16.933Z,21.05
2018-11-23T11:35:44.884Z,21.10
2018-11-23T11:38:12.889Z,22.82
2018-11-23T11:40:40.885Z,22.02
2018-11-23T11:43:08.888Z,23.25
2018-11-23T11:45:36.914Z,20.85
2018-11-23T11:48:04.890Z,21.60
2018-11-23T11:50:32.913Z,19.55
2018-11-23T11:53:00.965Z,21.73
2018-11-23T11:55:28.931Z,20.92
2018-11-23T11:57:56.941Z,19.82
2018-11-23T12:00:25.813Z,19.65
2018-11-23T12:02:54.062Z,20.12
2018-11-23T12:05:22.055Z,19.92
2018-11-23T12:07:50.140Z,18.95
2018-11-23T12:10:19.696Z,20.50
2018-11-23T12:12:47.736Z,18.30
2018-11-23T12:15:16.301Z,19.80
2018-11-23T12:17:44.392Z,16.05
2018-11-23T12:20:14.110Z,17.00
2018-11-23T12:22:42.352Z,16.42
2018-11-23T12:25:10.757Z,15.00
2018-11-23T12:27:38.730Z,16.80
2018-11-23T12:30:08.020Z,14.73
2018-11-23T12:32:36.022Z,15.15
2018-11-23T12:35:04.467Z,15.93
2018-11-23T12:37:32.419Z,14.75
2018-11-23T12:40:00.400Z,15.10
2018-11-23T12:42:28.409Z,15.83
2018-11-23T12:44:56.521Z,14.10
2018-11-23T12:47:24.518Z,15.40
2018-11-23T12:49:52.515Z,16.57
2018-11-23T12:52:20.496Z,17.00
2018-11-23T12:54:48.508Z,16.45
2018-11-23T12:57:16.647Z,16.32
2018-11-23T12:59:44.608Z,17.02
2018-11-23T13:02:12.629Z,15.30
2018-11-23T13:04:40.695Z,15.00
2018-11-23T13:07:08.684Z,15.85
2018-11-23T13:09:36.681Z,16.67
2018-11-23T13:12:05.517Z,17.73
2018-11-23T13:14:33.492Z,16.35
2018-11-23T13:17:01.444Z,16.87
2018-11-23T13:19:29.511Z,17.10
2018-11-23T13:21:57.585Z,17.40
2018-11-23T13:24:25.563Z,21.05
2018-11-23T13:26:53.529Z,17.27
2018-11-23T13:29:21.544Z,21.95
2018-11-23T13:31:49.576Z,20.95
2018-11-23T13:34:17.552Z,18.10
2018-11-23T13:36:45.597Z,19.05
2018-11-23T13:39:13.639Z,18.50
2018-11-23T13:41:41.827Z,20.05
2018-11-23T13:44:09.877Z,19.15
2018-11-23T13:46:37.901Z,17.52
2018-11-23T13:49:05.943Z,17.80
2018-11-23T13:51:33.944Z,17.55
2018-11-23T13:54:01.989Z,16.55
2018-11-23T13:56:30.014Z,19.17
2018-11-23T13:58:57.999Z,18.57
2018-11-23T14:01:26.000Z,19.87
2018-11-23T14:03:54.033Z,19.55
2018-11-23T14:06:22.111Z,18.48
2018-11-23T14:08:50.051Z,17.25
2018-11-23T14:11:18.024Z,17.52
2018-11-23T14:13:46.043Z,18.20
2018-11-23T14:16:14.007Z,17.50
2018-11-23T14:18:42.068Z,18.15
2018-11-23T14:21:10.115Z,20.80
2018-11-23T14:23:38.111Z,20.20
2018-11-23T14:26:06.130Z,22.73
2018-11-23T14:28:34.105Z,20.88
2018-11-23T14:31:02.073Z,21.33
2018-11-23T14:33:30.070Z,22.32
2018-11-23T14:35:58.070Z,21.55
2018-11-23T14:38:26.060Z,20.08
2018-11-23T14:40:54.036Z,19.55
2018-11-23T14:43:22.047Z,21.12
2018-11-23T14:45:50.116Z,19.23
2018-11-23T14:48:18.173Z,18.87
2018-11-23T14:50:50.394Z,19.80
2018-11-23T14:53:18.382Z,19.55
2018-11-23T14:55:46.410Z,18.17
2018-11-23T14:58:14.441Z,21.05
2018-11-23T15:00:42.593Z,18.02
2018-11-23T15:03:10.576Z,20.48
2018-11-23T15:05:38.821Z,18.92
2018-11-23T15:08:07.105Z,20.95
2018-11-23T15:10:35.674Z,20.23
2018-11-23T15:13:04.610Z,20.92
2018-11-23T15:15:34.966Z,19.75
2018-11-23T15:18:03.027Z,19.95
2018-11-23T15:20:32.753Z,21.30
2018-11-23T15:23:02.444Z,21.35
2018-11-23T15:25:30.466Z,21.20
2018-11-23T15:27:58.485Z,22.10
2018-11-23T15:30:31.703Z,20.62
2018-11-23T15:32:59.817Z,20.62
2018-11-23T15:35:28.453Z,21.68
2018-11-23T15:37:56.501Z,22.32
2018-11-23T15:40:25.878Z,23.02
2018-11-23T15:42:56.672Z,20.60
2018-11-23T15:45:25.863Z,21.00
2018-11-23T15:47:54.287Z,22.17
2018-11-23T15:50:26.676Z,22.07
2018-11-23T15:52:54.822Z,18.98
2018-11-23T15:55:24.617Z,22.77
2018-11-23T15:57:53.952Z,20.70
2018-11-23T16:00:23.940Z,20.05
2018-11-23T16:02:51.994Z,22.32
2018-11-23T16:05:20.090Z,19.60
2018-11-23T16:07:48.287Z,19.50
2018-11-23T16:10:20.928Z,19.37
2018-11-23T16:12:50.963Z,21.75
2018-11-23T16:15:19.819Z,21.75
2018-11-23T16:17:48.334Z,24.12
2018-11-23T16:20:17.539Z,20.97
2018-11-23T16:22:46.859Z,21.60
2018-11-23T16:25:14.993Z,24.70
2018-11-23T16:27:44.104Z,24.05
2018-11-23T16:30:14.233Z,23.42
2018-11-23T16:32:42.738Z,24.35
2018-11-23T16:35:10.743Z,25.45
2018-11-23T16:37:38.698Z,25.10
2018-11-23T16:40:07.956Z,24.05
2018-11-23T16:42:36.011Z,25.57
2018-11-23T16:45:04.674Z,24.72
2018-11-23T16:47:32.718Z,28.25
2018-11-23T16:50:00.718Z,27.17
2018-11-23T16:52:28.788Z,27.85
2018-11-23T16:54:56.785Z,24.77
2018-11-23T16:57:25.139Z,24.20
2018-11-23T16:59:53.104Z,24.15
2018-11-23T17:02:21.117Z,23.32
2018-11-23T17:04:49.116Z,26.40
2018-11-23T17:07:17.156Z,26.07
2018-11-23T17:09:45.142Z,26.77
2018-11-23T17:12:13.189Z,26.85
2018-11-23T17:14:41.255Z,26.12
2018-11-23T17:17:11.390Z,27.20
2018-11-23T17:19:39.446Z,26.48
2018-11-23T17:22:07.562Z,27.77
2018-11-23T17:24:35.615Z,26.82
2018-11-23T17:27:03.702Z,27.30
2018-11-23T17:29:31.753Z,25.90
2018-11-23T17:31:59.860Z,26.60
2018-11-23T17:34:28.371Z,28.35
2018-11-23T17:36:56.444Z,26.07
2018-11-23T17:39:24.459Z,27.05
2018-11-23T17:41:52.460Z,25.45
2018-11-23T17:44:20.482Z,27.60
2018-11-23T17:46:48.569Z,25.75
2018-11-23T17:49:16.655Z,29.50
2018-11-23T17:51:44.690Z,27.30
2018-11-23T17:54:12.790Z,30.70
2018-11-23T17:56:40.857Z,27.77
2018-11-23T17:59:08.914Z,26.23
2018-11-23T18:01:36.958Z,27.95
2018-11-23T18:04:05.019Z,27.95
2018-11-23T18:06:33.022Z,27.32
2018-11-23T18:09:01.259Z,29.80
2018-11-23T18:11:29.363Z,30.15
2018-11-23T18:13:57.427Z,27.80
2018-11-23T18:16:25.452Z,31.12
2018-11-23T18:18:53.468Z,30.20
2018-11-23T18:21:22.537Z,28.85
2018-11-23T18:23:50.675Z,29.65
2018-11-23T18:26:18.819Z,28.70
2018-11-23T18:28:46.831Z,29.15
2018-11-23T18:31:14.861Z,29.18
2018-11-23T18:33:43.954Z,27.35
2018-11-23T18:36:12.028Z,30.57
2018-11-23T18:38:40.036Z,31.65
2018-11-23T18:41:08.056Z,30.50
2018-11-23T18:43:36.096Z,29.55
2018-11-23T18:46:04.157Z,30.75
2018-11-23T18:48:34.270Z,32.05
2018-11-23T18:51:02.376Z,31.42
2018-11-23T18:53:31.430Z,32.55
2018-11-23T18:55:59.416Z,31.52
2018-11-23T18:58:29.490Z,30.80
2018-11-23T19:00:57.513Z,32.33
2018-11-23T19:03:25.485Z,30.25
2018-11-23T19:05:53.453Z,31.30
2018-11-23T19:08:22.544Z,31.15
2018-11-23T19:10:50.554Z,31.48
2018-11-23T19:13:18.626Z,29.98
2018-11-23T19:15:46.616Z,30.88
2018-11-23T19:18:14.625Z,31.37
2018-11-23T19:20:42.580Z,29.57
2018-11-23T19:23:10.625Z,31.30
2018-11-23T19:25:38.655Z,33.95
2018-11-23T19:28:06.610Z,31.55
2018-11-23T19:30:34.650Z,34.00
2018-11-23T19:33:02.684Z,32.90
2018-11-23T19:35:30.728Z,31.90
2018-11-23T19:37:58.789Z,31.15
2018-11-23T19:40:26.800Z,31.90
2018-11-23T19:42:54.819Z,31.15
2018-11-23T19:45:24.946Z,28.12
2018-11-23T19:47:52.921Z,29.10
2018-11-23T19:50:20.935Z,31.73
2018-11-23T19:52:49.963Z,27.70
2018-11-23T19:55:17.987Z,29.57
2018-11-23T19:57:47.092Z,31.37
2018-11-23T20:00:17.720Z,29.48
2018-11-23T20:02:45.743Z,29.40
2018-11-23T20:05:13.733Z,31.10
2018-11-23T20:07:43.006Z,32.67
2018-11-23T20:10:14.596Z,31.87
2018-11-23T20:12:42.832Z,30.80
2018-11-23T20:15:11.749Z,33.85
2018-11-23T20:17:41.428Z,31.35
2018-11-23T20:20:08.592Z,31.70
2018-11-23T20:22:38.744Z,33.75
2018-11-23T20:25:07.796Z,33.92
2018-11-23T20:27:35.798Z,30.77
2018-11-23T20:30:05.122Z,33.20
2018-11-23T20:32:33.215Z,34.15
2018-11-23T20:35:02.288Z,33.25
2018-11-23T20:37:30.287Z,32.78
2018-11-23T20:39:58.326Z,34.25
2018-11-23T20:42:26.406Z,33.40
2018-11-23T20:44:55.494Z,32.98
2018-11-23T20:47:23.492Z,36.08
2018-11-23T20:49:51.530Z,36.45
2018-11-23T20:52:19.574Z,32.35
2018-11-23T20:54:47.569Z,35.05
2018-11-23T20:57:15.533Z,33.55
2018-11-23T20:59:43.606Z,35.20
2018-11-23T21:02:11.667Z,33.00
2018-11-23T21:04:46.733Z,34.67
2018-11-23T21:07:14.685Z,32.05
2018-11-23T21:09:42.713Z,33.53
2018-11-23T21:12:10.770Z,31.62
2018-11-23T21:14:38.816Z,34.13
2018-11-23T21:17:06.840Z,35.33
2018-11-23T21:19:34.860Z,34.33
2018-11-23T21:22:02.900Z,31.68
2018-11-23T21:24:30.940Z,35.15
2018-11-23T21:26:58.953Z,34.03
2018-11-23T21:29:27.060Z,32.60
2018-11-23T21:31:55.132Z,33.70
2018-11-23T21:34:23.240Z,33.80
2018-11-23T21:36:51.293Z,32.33
2018-11-23T21:39:19.314Z,34.18
2018-11-23T21:41:47.281Z,34.58
2018-11-23T21:44:15.301Z,36.55
2018-11-23T21:49:31.078Z,34.90
2018-11-23T21:51:59.153Z,33.00
2018-11-23T21:54:27.120Z,39.00
2018-11-23T21:56:55.121Z,33.00
2018-11-23T21:59:23.193Z,34.13
2018-11-23T22:01:51.210Z,33.70
2018-11-23T22:04:19.271Z,31.52
2018-11-23T22:06:47.266Z,32.42
2018-11-23T22:09:15.261Z,33.02
2018-11-23T22:11:43.233Z,31.73
2018-11-23T22:14:11.283Z,32.38
2018-11-23T22:16:46.045Z,33.88
2018-11-23T22:19:14.260Z,32.23
2018-11-23T22:21:45.464Z,30.85
2018-11-23T22:24:13.446Z,31.42
2018-11-23T22:26:41.467Z,34.53
2018-11-23T22:29:09.443Z,31.68
2018-11-23T22:31:37.463Z,33.00
2018-11-23T22:34:05.649Z,32.75
2018-11-23T22:36:33.636Z,32.78
2018-11-23T22:39:09.106Z,32.73
2018-11-23T22:41:37.112Z,31.25
2018-11-23T22:44:05.143Z,31.10
2018-11-23T22:46:35.273Z,31.23
2018-11-23T22:49:03.504Z,30.45
2018-11-23T22:51:31.479Z,29.32
2018-11-23T22:53:59.481Z,31.73
2018-11-23T22:56:27.454Z,31.75
2018-11-23T22:58:55.741Z,31.27
2018-11-23T23:01:23.753Z,29.45
2018-11-23T23:03:51.760Z,30.97
2018-11-23T23:06:19.968Z,28.85
2018-11-23T23:08:47.940Z,29.40
2018-11-23T23:11:15.971Z,30.43
2018-11-23T23:13:44.089Z,31.70
2018-11-23T23:16:12.091Z,29.90
2018-11-23T23:18:40.091Z,31.37
2018-11-23T23:21:08.152Z,29.75
2018-11-23T23:23:36.233Z,31.07
2018-11-23T23:26:04.301Z,28.83
2018-11-23T23:28:32.343Z,34.00
2018-11-23T23:31:00.361Z,31.07
2018-11-23T23:33:28.426Z,30.68
2018-11-23T23:35:56.396Z,29.52
2018-11-23T23:38:24.421Z,31.80
2018-11-23T23:40:52.558Z,30.37
2018-11-23T23:43:20.547Z,33.00
2018-11-23T23:45:48.558Z,31.95
2018-11-23T23:48:16.525Z,33.13
2018-11-23T23:50:44.486Z,32.83
2018-11-23T23:53:12.485Z,33.73
2018-11-23T23:55:40.449Z,34.50
2018-11-23T23:58:08.411Z,32.25
